Ardmore, Missouri
Current Conditions -  °F | °C
As of 12:55 AM on Thursday 27 Nov 2014 (Local Time) from KIRK Reporting Station
Haze Haze  
Wind Chill: -5°   Ceiling: 1000
Heat Index: -2°   Visibility: 4mi
Dew Point: -3°   Wind: 6mph
Humidity: 92%   Direction: 330°NNW
Pressure: 30.35"   Gusts: NA
Location:  39.6493°N, 92.4492°W
Report Text: KIRK 270655Z AUTO 33005KT 4SM BR BKN010 OVC014 M02/M03 A3035 RMK AO2 SLP290 T10171028
Loading
Personal Weather Stations






























Interactive Weather Map New forecast layout! Learn more

10-Day Weather Forecast

Advertisements
Track Severe Weather on mobile